Map

Track Data

SID SEASON NUMBER BASIN SUBBASIN NAME ISO_TIME NATURE LAT LON WMO_WIND WMO_PRES WMO_AGENCY TRACK_TYPE DIST2LAND LANDFALL IFLAG USA_AGENCY USA_ATCF_ID USA_LAT USA_LON USA_RECORD USA_STATUS USA_WIND USA_PRES USA_SSHS USA_R34_NE USA_R34_SE USA_R34_SW USA_R34_NW USA_R50_NE USA_R50_SE USA_R50_SW USA_R50_NW USA_R64_NE USA_R64_SE USA_R64_SW USA_R64_NW USA_POCI USA_ROCI USA_RMW USA_EYE TOKYO_LAT TOKYO_LON TOKYO_GRADE TOKYO_WIND TOKYO_PRES TOKYO_R50_DIR TOKYO_R50_LONG TOKYO_R50_SHORT TOKYO_R30_DIR TOKYO_R30_LONG TOKYO_R30_SHORT TOKYO_LAND CMA_LAT CMA_LON CMA_CAT CMA_WIND CMA_PRES HKO_LAT HKO_LON HKO_CAT HKO_WIND HKO_PRES NEWDELHI_LAT NEWDELHI_LON NEWDELHI_GRADE NEWDELHI_WIND NEWDELHI_PRES NEWDELHI_CI NEWDELHI_DP NEWDELHI_POCI REUNION_LAT REUNION_LON REUNION_TYPE REUNION_WIND REUNION_PRES REUNION_TNUM REUNION_CI REUNION_RMW REUNION_R34_NE REUNION_R34_SE REUNION_R34_SW REUNION_R34_NW REUNION_R50_NE REUNION_R50_SE REUNION_R50_SW REUNION_R50_NW REUNION_R64_NE REUNION_R64_SE REUNION_R64_SW REUNION_R64_NW BOM_LAT BOM_LON BOM_TYPE BOM_WIND BOM_PRES BOM_TNUM BOM_CI BOM_RMW BOM_R34_NE BOM_R34_SE BOM_R34_SW BOM_R34_NW BOM_R50_NE BOM_R50_SE BOM_R50_SW BOM_R50_NW BOM_R64_NE BOM_R64_SE BOM_R64_SW BOM_R64_NW BOM_ROCI BOM_POCI BOM_EYE BOM_POS_METHOD BOM_PRES_METHOD NADI_LAT NADI_LON NADI_CAT NADI_WIND NADI_PRES WELLINGTON_LAT WELLINGTON_LON WELLINGTON_WIND WELLINGTON_PRES DS824_LAT DS824_LON DS824_STAGE DS824_WIND DS824_PRES TD9636_LAT TD9636_LON TD9636_STAGE TD9636_WIND TD9636_PRES TD9635_LAT TD9635_LON TD9635_WIND TD9635_PRES TD9635_ROCI NEUMANN_LAT NEUMANN_LON NEUMANN_CLASS NEUMANN_WIND NEUMANN_PRES MLC_LAT MLC_LON MLC_CLASS MLC_WIND MLC_PRES USA_GUST BOM_GUST BOM_GUST_PER REUNION_GUST REUNION_GUST_PER USA_SEAHGT USA_SEARAD_NE USA_SEARAD_SE USA_SEARAD_SW USA_SEARAD_NW STORM_SPEED STORM_DIR
1958102S10139 1958 30 SP EA NOT_NAMED 1958-04-11 23:00:00 NR -9.90000 139.300 main 182 182 __________O___ -1 -9.90000 139.300 1 21 217
1958102S10139 1958 30 SP EA NOT_NAMED 1958-04-11 23:30:00 NR -10.0407 139.195 1002 bom main 191 191 ______O___P___ -1 -10.3000 139.000 1002 -9.91111 139.293 1 12 216
1958102S10139 1958 30 SP EA NOT_NAMED 1958-04-12 00:00:00 TS -10.0541 139.185 main 202 202 O_____P__OP___ jtwc_sh SH301958 -9.90000 139.300 -1 -10.2830 139.012 -10.3000 139.000 TC 25 1002 -9.92220 139.286 1 0 0
1958102S10139 1958 30 SP EA NOT_NAMED 1958-04-12 03:00:00 TS -10.0541 139.178 main 202 202 P_____P__PP___ SH301958 -9.95000 139.238 -1 -10.1838 139.082 -10.2030 139.062 TC -9.98646 139.247 1 0 0
1958102S10139 1958 30 SP EA NOT_NAMED 1958-04-12 06:00:00 TS -10.0528 139.176 main 202 202 O_____P__PP___ jtwc_sh SH301958 -10.0000 139.200 -1 -10.0956 139.145 -10.1153 139.118 TC -10.0424 139.216 1 0 0
1958102S10139 1958 30 SP EA NOT_NAMED 1958-04-12 09:00:00 TS -10.0516 139.191 main 202 202 P_____P__PP___ SH301958 -10.0500 139.200 -1 -10.0281 139.192 -10.0461 139.162 TC -10.0837 139.200 1 0 0
1958102S10139 1958 30 SP EA NOT_NAMED 1958-04-12 11:00:00 TS -10.0561 139.200 main 202 202 P_____P__PO___ SH301958 -10.0833 139.203 -1 -9.99933 139.213 -10.0147 139.182 TC -10.1000 139.200 1 0 0
1958102S10139 1958 30 SP EA NOT_NAMED 1958-04-12 12:00:00 TS -10.0599 139.202 main 202 202 O_____P__PP___ jtwc_sh SH301958 -10.1000 139.200 -1 -9.99086 139.219 -10.0045 139.189 TC -10.1043 139.204 1 0 0
1958102S10139 1958 30 SP EA NOT_NAMED 1958-04-12 15:00:00 TS -10.0811 139.186 main 202 202 P_____P__PP___ SH301958 -10.1500 139.150 -1 -9.99338 139.217 -9.99990 139.192 TC -10.1122 139.221 1 1 215
1958102S10139 1958 30 SP EA NOT_NAMED 1958-04-12 18:00:00 TS -10.1247 139.153 main 202 201 O_____P__PP___ jtwc_sh SH301958 -10.2000 139.100 -1 -10.0452 139.180 -10.0415 139.165 TC -10.1368 139.221 1 1 208
1958102S10139 1958 30 SP EA NOT_NAMED 1958-04-12 21:00:00 TS -10.1857 139.131 main 212 212 P_____P__PP___ SH301958 -10.2125 139.137 -1 -10.1559 139.102 -10.1384 139.103 TC -10.2095 139.173 1 2 206
1958102S10139 1958 30 SP EA NOT_NAMED 1958-04-12 23:00:00 TS -10.2630 139.085 main 222 222 P_____P__PO___ SH301958 -10.2548 139.132 -1 -10.2671 139.023 -10.2384 139.039 TC -10.3000 139.100 1 3 214
1958102S10139 1958 30 SP EA NOT_NAMED 1958-04-12 23:30:00 TS -10.2897 139.066 1002 bom main 222 222 P_____O__PP___ SH301958 -10.2749 139.119 -1 -10.3000 139.000 1002 -10.2682 139.020 TC -10.3308 139.071 1 4 214
1958102S10139 1958 30 SP EA NOT_NAMED 1958-04-13 00:00:00 TS -10.3198 139.043 main 219 219 O_____P__OP___ jtwc_sh SH301958 -10.3000 139.100 -1 -10.3350 138.975 -10.3000 139.000 TC 25 1002 -10.3641 139.039 1 6 220
1958102S10139 1958 30 SP EA NOT_NAMED 1958-04-13 03:00:00 TS -10.5674 138.828 main 248 234 P_____P__PP___ SH301958 -10.5551 138.845 -1 -10.5852 138.798 -10.5315 138.852 TC -10.6104 138.802 1 7 220
1958102S10139 1958 30 SP EA NOT_NAMED 1958-04-13 06:00:00 TS -10.8867 138.551 main 234 187 O_____P__PP___ jtwc_sh SH301958 -10.9000 138.500 -1 -10.8930 138.582 -10.8223 138.664 TC -10.9182 138.509 1 9 220
1958102S10139 1958 30 SP EA NOT_NAMED 1958-04-13 09:00:00 TS -11.2266 138.271 main 187 156 P_____P__PP___ SH301958 -11.2350 138.185 -1 -11.2423 138.339 -11.1580 138.446 TC -11.2625 138.198 1 9 218
1958102S10139 1958 30 SP EA NOT_NAMED 1958-04-13 11:00:00 TS -11.4680 138.087 main 149 134 P_____P__PO___ SH301958 -11.4750 137.989 -1 -11.4903 138.168 -11.3995 138.288 TC -11.5000 138.000 1 9 216
1958102S10139 1958 30 SP EA NOT_NAMED 1958-04-13 12:00:00 TS -11.5917 138.001 main 134 93 O_____P__PP___ jtwc_sh SH301958 -11.6000 137.900 -1 -11.6170 138.081 -11.5240 138.206 TC -11.6173 137.916 1 9 211
1958102S10139 1958 30 SP EA NOT_NAMED 1958-04-13 15:00:00 TS -11.9810 137.767 main 93 65 P_____P__PP___ SH301958 -12.0074 137.692 -1 -12.0010 137.823 -11.9056 137.953 TC -11.9834 137.673 1 9 210
1958102S10139 1958 30 SP EA NOT_NAMED 1958-04-13 18:00:00 TS -12.3636 137.544 main 55 48 O_____P__PP___ jtwc_sh SH301958 -12.4000 137.500 -1 -12.3783 137.577 -12.2885 137.695 TC -12.3511 137.446 1 9 212
1958102S10139 1958 30 SP EA NOT_NAMED 1958-04-13 21:00:00 TS -12.7094 137.303 main 54 48 P_____P__PP___ SH301958 -12.7300 137.243 -1 -12.7331 137.356 -12.6581 137.441 TC -12.6956 137.233 1 8 215
1958102S10139 1958 30 SP EA NOT_NAMED 1958-04-13 23:00:00 TS -12.9158 137.145 main 44 44 P_____P__PO___ SH301958 -12.9167 137.075 -1 -12.9492 137.229 -12.8900 137.278 TC -12.9000 137.100 2 8 218
1958102S10139 1958 30 SP EA NOT_NAMED 1958-04-13 23:30:00 TS -12.9631 137.102 990 bom main 43 43 P_____O__PP___ SH301958 -12.9592 137.036 -1 -13.0000 137.200 990 -12.9456 137.239 TC -12.9430 137.066 2 7 220
1958102S10139 1958 30 SP EA NOT_NAMED 1958-04-14 00:00:00 TS -13.0067 137.062 main 43 31 O_____P__OP___ jtwc_sh SH301958 -13.0000 137.000 -1 -13.0443 137.180 990 -13.0000 137.200 TC 45 990 -12.9843 137.032 2 6 216
1958102S10139 1958 30 SP EA NOT_NAMED 1958-04-14 03:00:00 TS -13.2325 136.897 main 31 31 P_____P__PP___ SH301958 -13.2150 136.835 -1 -13.2970 137.078 990 -13.3026 136.979 TC -13.2031 136.840 2 5 215
1958102S10139 1958 30 SP EA NOT_NAMED 1958-04-14 06:00:00 TS -13.4305 136.763 main 34 11 O_____P__PP___ jtwc_sh SH301958 -13.4000 136.700 -1 -13.5316 136.988 990 -13.5658 136.779 TC -13.3904 136.662 2 5 214
1958102S10139 1958 30 SP EA NOT_NAMED 1958-04-14 09:00:00 TS -13.6276 136.621 main 11 0 P_____P__PP___ SH301958 -13.5925 136.550 -1 -13.7546 136.886 990 -13.7924 136.598 TC -13.5710 136.500 2 5 215
1958102S10139 1958 30 SP EA NOT_NAMED 1958-04-14 11:00:00 TS -13.7638 136.525 990 bom main 10 10 P_____O__PO___ SH301958 -13.7276 136.450 -1 -13.9000 136.800 990 -13.9243 136.488 TC -13.7000 136.400 2 5 215
1958102S10139 1958 30 SP EA NOT_NAMED 1958-04-14 12:00:00 TS -13.8429 136.472 main 10 0 O_____P__PP___ jtwc_sh SH301958 -13.8000 136.400 -1 -13.9829 136.735 990 -13.9848 136.436 TC -13.7889 136.352 2 6 213
1958102S10139 1958 30 SP EA NOT_NAMED 1958-04-14 15:00:00 TS -14.0970 136.304 main 10 0 P_____P__PP___ SH301958 -14.0425 136.243 -1 -14.2314 136.512 990 -14.1459 136.290 TC -14.0718 136.218 2 6 212
1958102S10139 1958 30 SP EA NOT_NAMED 1958-04-14 18:00:00 TS -14.3539 136.142 main 31 31 O_____P__PP___ jtwc_sh SH301958 -14.3000 136.100 -1 -14.4657 136.271 990 -14.2783 136.160 TC -14.3497 136.095 2 6 209
1958102S10139 1958 30 SP EA NOT_NAMED 1958-04-14 21:00:00 TS -14.6071 136.006 main 44 39 P_____P__PP___ SH301958 -14.5875 136.000 -1 -14.6683 136.048 990 -14.3846 136.043 TC -14.5851 135.978 2 5 208
1958102S10139 1958 30 SP EA NOT_NAMED 1958-04-14 23:00:00 TS -14.7418 135.925 main 39 39 P_____P__PO___ SH301958 -14.7452 135.936 -1 -14.7769 135.926 990 -14.4423 135.973 TC -14.7000 135.900 4 5 212
1958102S10139 1958 30 SP EA NOT_NAMED 1958-04-14 23:30:00 TS -14.7679 135.903 990 bom main 39 39 P_____O__PP___ SH301958 -14.7751 135.919 -1 -14.8000 135.900 990 4 -14.4552 135.956 TC -14.7216 135.876 4 4 224
1958102S10139 1958 30 SP EA NOT_NAMED 1958-04-15 00:00:00 TS -14.7910 135.884 main 39 24 O_____P__PP___ jtwc_sh SH301958 -14.8000 135.900 -1 -14.8231 135.883 990 -14.4675 135.940 TC -14.7409 135.852 4 3 237
1958102S10139 1958 30 SP EA NOT_NAMED 1958-04-15 03:00:00 TS -14.8583 135.753 main 24 15 P_____P__PP___ SH301958 -14.8450 135.750 -1 -14.9315 135.807 990 -14.5296 135.848 TC -14.8116 135.706 4 3 256
1958102S10139 1958 30 SP EA NOT_NAMED 1958-04-15 06:00:00 TS -14.8512 135.626 main 15 15 O_____P__PP___ jtwc_sh SH301958 -14.8000 135.600 -1 -14.9907 135.734 990 -14.5734 135.765 TC -14.8140 135.568 4 2 274
1958102S10139 1958 30 SP EA NOT_NAMED 1958-04-15 07:00:00 TS -14.8476 135.586 990 bom main 15 11 P_____O__PP___ SH301958 -14.7943 135.558 -1 -15.0000 135.700 990 -14.5845 135.740 TC -14.8018 135.527 4 2 281
1958102S10139 1958 30 SP EA NOT_NAMED 1958-04-15 09:00:00 TS -14.8292 135.506 main 11 10 P_____P__PP___ SH301958 -14.7725 135.485 -1 -15.0112 135.599 994 -14.6017 135.691 TC -14.7605 135.455 4 2 292
1958102S10139 1958 30 SP EA NOT_NAMED 1958-04-15 11:00:00 TS -14.7904 135.438 998 bom main 10 10 P_____O__PO___ SH301958 -14.7307 135.425 -1 -15.0000 135.500 998 -14.6132 135.646 TC -14.7000 135.400 1 2 303
1958102S10139 1958 30 SP EA NOT_NAMED 1958-04-15 12:00:00 TS -14.7715 135.412 main 10 0 O_____P__PP___ jtwc_sh SH301958 -14.7000 135.400 -1 -14.9867 135.461 998 -14.6170 135.625 TC -14.6637 135.381 1 2 325
1958102S10139 1958 30 SP EA NOT_NAMED 1958-04-15 15:00:00 TS -14.6741 135.360 main 0 0 P_____P__PP___ SH301958 -14.5675 135.342 -1 -14.9203 135.387 999 -14.6218 135.563 TC -14.5345 135.351 1 2 340
1958102S10139 1958 30 SP EA NOT_NAMED 1958-04-15 18:00:00 TS -14.5820 135.347 main 0 0 O_____P__PP___ jtwc_sh SH301958 -14.4000 135.300 -1 -14.8229 135.365 1000 -14.6189 135.507 TC -14.3821 135.354 1 2 0
1958102S10139 1958 30 SP EA NOT_NAMED 1958-04-15 21:00:00 NR -14.5093 135.378 main 0 0 ______P__PP___ SH301958 -1 -14.7054 135.377 1001 -14.6108 135.453 TC -14.2151 135.378 1 2 19
1958102S10139 1958 30 SP EA NOT_NAMED 1958-04-15 23:00:00 NR -14.4475 135.397 main 0 0 ______P__PO___ SH301958 -1 -14.6213 135.395 1001 -14.6037 135.417 TC -14.1000 135.400 1 2 0
1958102S10139 1958 30 SP EA NOT_NAMED 1958-04-15 23:30:00 NR -14.6000 135.400 1002 bom main 0 0 ______O__P____ SH301958 -1 -14.6000 135.400 1002 -14.6019 135.409 TC 1 9 174
1958102S10139 1958 30 SP EA NOT_NAMED 1958-04-16 00:00:00 TS -14.6000 135.400 main 0 _________O____ -1 -14.6000 135.400 TC 25 1002 1 0 0

Digital Typhoon Data and Search

About IBTrACS Database

This database is a web-friendly format of International Best Track Archive for Climate Stewardship (IBTrACS), a global best track data archive curated by NOAA dating back to 1842.

Updated: 2021-11-26